createdAt,value
2019-06-27T00:08:54.165Z,11.50
2019-06-27T00:18:55.129Z,10.80
2019-06-27T00:28:56.089Z,11.83
2019-06-27T00:38:57.042Z,12.07
2019-06-27T00:48:58.002Z,12.03
2019-06-27T00:58:59.049Z,12.27
2019-06-27T01:09:00.008Z,12.90
2019-06-27T01:19:00.954Z,12.40
2019-06-27T01:29:02.153Z,13.77
2019-06-27T01:39:04.307Z,12.80
2019-06-27T01:49:05.251Z,12.13
2019-06-27T01:59:06.207Z,12.53
2019-06-27T02:09:07.972Z,12.63
2019-06-27T02:19:09.009Z,12.23
2019-06-27T02:29:09.978Z,12.40
2019-06-27T02:39:10.944Z,11.97
2019-06-27T02:49:11.907Z,12.77
2019-06-27T02:59:12.837Z,13.03
2019-06-27T03:09:13.792Z,13.37
2019-06-27T03:19:14.852Z,13.00
2019-06-27T03:29:20.174Z,13.27
2019-06-27T03:39:18.945Z,12.77
2019-06-27T03:49:19.905Z,14.00
2019-06-27T03:59:20.862Z,13.33
2019-06-27T04:09:23.039Z,13.43
2019-06-27T04:19:26.002Z,12.73
2019-06-27T04:29:33.357Z,12.07
2019-06-27T04:39:30.018Z,12.80
2019-06-27T04:49:30.966Z,12.10
2019-06-27T04:59:48.173Z,12.47
2019-06-27T05:09:34.829Z,11.87
2019-06-27T05:19:36.374Z,12.90
2019-06-27T05:29:37.330Z,12.23
2019-06-27T05:39:38.294Z,12.97
2019-06-27T05:49:39.246Z,12.53
2019-06-27T05:59:40.205Z,11.63
2019-06-27T06:09:41.161Z,10.78
2019-06-27T06:19:42.103Z,10.35
2019-06-27T06:29:43.056Z,10.45
2019-06-27T06:39:44.009Z,10.30
2019-06-27T06:49:44.956Z,10.58
2019-06-27T06:59:45.904Z,10.75
2019-06-27T07:09:46.859Z,11.57
2019-06-27T07:19:47.807Z,11.28
2019-06-27T07:29:48.781Z,12.25
2019-06-27T07:39:49.741Z,12.43
2019-06-27T07:49:50.711Z,11.25
2019-06-27T07:59:51.734Z,11.40
2019-06-27T08:09:52.803Z,11.28
2019-06-27T08:19:53.742Z,11.95
2019-06-27T08:29:54.727Z,12.35
2019-06-27T08:39:56.065Z,11.35
2019-06-27T08:50:00.027Z,10.32
2019-06-27T09:00:01.312Z,11.08
2019-06-27T09:10:04.100Z,10.78
2019-06-27T09:20:07.269Z,10.82
2019-06-27T09:30:08.819Z,11.12
2019-06-27T09:40:11.363Z,11.95
2019-06-27T09:50:13.311Z,11.73
2019-06-27T10:00:15.093Z,12.47
2019-06-27T10:10:16.479Z,12.80
2019-06-27T10:20:17.768Z,12.23
2019-06-27T10:30:19.138Z,11.53
2019-06-27T10:40:20.526Z,12.30
2019-06-27T10:50:21.512Z,11.95
2019-06-27T11:00:22.759Z,11.40
2019-06-27T11:10:23.718Z,10.90
2019-06-27T11:20:24.749Z,12.15
2019-06-27T11:30:26.370Z,11.70
2019-06-27T11:40:27.503Z,11.68
2019-06-27T11:50:28.612Z,11.95
2019-06-27T12:00:29.791Z,11.45
2019-06-27T12:10:30.804Z,11.38
2019-06-27T12:20:31.906Z,10.55
2019-06-27T12:30:32.860Z,10.68
2019-06-27T12:40:33.808Z,9.90
2019-06-27T12:50:34.770Z,10.58
2019-06-27T13:00:35.829Z,10.55
2019-06-27T13:10:36.780Z,10.13
2019-06-27T13:20:37.733Z,10.90
2019-06-27T13:30:38.701Z,11.22
2019-06-27T13:40:44.677Z,10.23
2019-06-27T13:50:48.543Z,11.50
2019-06-27T14:00:49.488Z,11.25
2019-06-27T14:10:51.444Z,11.12
2019-06-27T14:20:52.507Z,11.00
2019-06-27T14:30:53.538Z,9.83
2019-06-27T14:40:54.515Z,9.48
2019-06-27T14:50:55.468Z,9.08
2019-06-27T15:00:56.405Z,8.35
2019-06-27T15:10:57.630Z,7.78
2019-06-27T15:20:58.581Z,7.10
2019-06-27T15:30:59.655Z,6.58
2019-06-27T15:41:00.701Z,5.62
2019-06-27T15:51:02.012Z,4.80
2019-06-27T16:01:03.040Z,4.42
2019-06-27T16:11:05.030Z,3.80
2019-06-27T16:21:05.982Z,3.55
2019-06-27T16:31:06.937Z,2.60
2019-06-27T16:41:09.553Z,2.20
2019-06-27T16:51:10.490Z,2.37
2019-06-27T17:01:11.491Z,1.90
2019-06-27T17:11:12.458Z,1.90
2019-06-27T17:21:13.380Z,2.40
2019-06-27T17:31:14.331Z,1.97
2019-06-27T17:41:15.472Z,1.80
2019-06-27T17:51:17.414Z,1.90
2019-06-27T18:01:18.411Z,1.70
2019-06-27T18:11:19.380Z,2.00
2019-06-27T18:21:20.743Z,1.90
2019-06-27T18:31:21.927Z,1.80
2019-06-27T18:41:22.873Z,2.00
2019-06-27T18:51:23.807Z,1.97
2019-06-27T19:01:24.768Z,1.83
2019-06-27T19:11:25.832Z,1.87
2019-06-27T19:21:40.856Z,1.67
2019-06-27T19:31:41.803Z,2.27
2019-06-27T19:41:42.859Z,2.10
2019-06-27T19:51:43.802Z,2.53
2019-06-27T20:01:44.866Z,1.90
2019-06-27T20:11:45.798Z,2.13
2019-06-27T20:21:46.797Z,2.10
2019-06-27T20:31:47.817Z,2.00
2019-06-27T20:41:48.843Z,2.20
2019-06-27T20:51:49.804Z,2.40
2019-06-27T21:01:50.782Z,1.50
2019-06-27T21:11:51.724Z,1.90
2019-06-27T21:21:52.668Z,2.00
2019-06-27T21:31:53.619Z,1.90
2019-06-27T21:41:58.802Z,2.10
2019-06-27T21:51:59.726Z,2.00
2019-06-27T22:02:00.781Z,2.10
2019-06-27T22:12:01.960Z,2.20
2019-06-27T22:22:02.990Z,2.50
2019-06-27T22:32:03.948Z,2.33
2019-06-27T22:42:23.482Z,2.20
2019-06-27T22:52:42.796Z,2.00
2019-06-27T23:02:43.741Z,2.17
2019-06-27T23:12:44.752Z,2.20
2019-06-27T23:22:45.700Z,2.43
2019-06-27T23:32:46.648Z,2.60
2019-06-27T23:42:47.599Z,2.80
2019-06-27T23:52:49.304Z,2.83
